sensor_id;sensor_type;location;lat;lon;timestamp;P1;durP1;ratioP1;P2;durP2;ratioP2
12433;SDS011;6281;49.038;8.372;2024-01-06T00:02:19;4.73;;;3.47;;
12433;SDS011;6281;49.038;8.372;2024-01-06T00:04:46;6.27;;;3.67;;
12433;SDS011;6281;49.038;8.372;2024-01-06T00:07:13;6.33;;;3.67;;
12433;SDS011;6281;49.038;8.372;2024-01-06T00:09:39;5.63;;;3.27;;
12433;SDS011;6281;49.038;8.372;2024-01-06T00:12:06;8.03;;;3.70;;
12433;SDS011;6281;49.038;8.372;2024-01-06T00:14:34;8.83;;;3.97;;
12433;SDS011;6281;49.038;8.372;2024-01-06T00:17:02;4.27;;;3.43;;
12433;SDS011;6281;49.038;8.372;2024-01-06T00:19:29;6.47;;;4.03;;
12433;SDS011;6281;49.038;8.372;2024-01-06T00:21:56;5.03;;;3.60;;
12433;SDS011;6281;49.038;8.372;2024-01-06T00:24:22;6.50;;;3.80;;
12433;SDS011;6281;49.038;8.372;2024-01-06T00:26:49;6.67;;;3.27;;
12433;SDS011;6281;49.038;8.372;2024-01-06T00:29:16;3.83;;;2.90;;
12433;SDS011;6281;49.038;8.372;2024-01-06T00:31:43;7.43;;;3.30;;
12433;SDS011;6281;49.038;8.372;2024-01-06T00:34:11;4.40;;;3.00;;
12433;SDS011;6281;49.038;8.372;2024-01-06T00:36:38;6.03;;;3.33;;
12433;SDS011;6281;49.038;8.372;2024-01-06T00:39:04;7.97;;;3.17;;
12433;SDS011;6281;49.038;8.372;2024-01-06T00:41:31;4.07;;;3.17;;
12433;SDS011;6281;49.038;8.372;2024-01-06T00:44:00;6.77;;;2.93;;
12433;SDS011;6281;49.038;8.372;2024-01-06T00:46:27;6.80;;;3.70;;
12433;SDS011;6281;49.038;8.372;2024-01-06T00:48:54;6.80;;;3.20;;
12433;SDS011;6281;49.038;8.372;2024-01-06T00:51:22;4.33;;;3.03;;
12433;SDS011;6281;49.038;8.372;2024-01-06T00:53:48;8.23;;;3.53;;
12433;SDS011;6281;49.038;8.372;2024-01-06T00:56:15;4.63;;;3.10;;
12433;SDS011;6281;49.038;8.372;2024-01-06T00:58:42;7.27;;;3.47;;
12433;SDS011;6281;49.038;8.372;2024-01-06T01:01:09;7.93;;;3.13;;
12433;SDS011;6281;49.038;8.372;2024-01-06T01:03:35;5.50;;;3.50;;
12433;SDS011;6281;49.038;8.372;2024-01-06T01:06:02;4.73;;;2.97;;
12433;SDS011;6281;49.038;8.372;2024-01-06T01:08:31;4.87;;;3.10;;
12433;SDS011;6281;49.038;8.372;2024-01-06T01:10:57;6.37;;;3.37;;
12433;SDS011;6281;49.038;8.372;2024-01-06T01:13:24;5.80;;;3.13;;
12433;SDS011;6281;49.038;8.372;2024-01-06T01:15:51;6.73;;;3.50;;
12433;SDS011;6281;49.038;8.372;2024-01-06T01:18:18;5.47;;;3.30;;
12433;SDS011;6281;49.038;8.372;2024-01-06T01:20:45;6.73;;;3.33;;
12433;SDS011;6281;49.038;8.372;2024-01-06T01:23:11;5.50;;;3.20;;
12433;SDS011;6281;49.038;8.372;2024-01-06T01:25:40;7.30;;;3.33;;
12433;SDS011;6281;49.038;8.372;2024-01-06T01:28:06;5.47;;;3.10;;
12433;SDS011;6281;49.038;8.372;2024-01-06T01:30:33;6.60;;;2.90;;
12433;SDS011;6281;49.038;8.372;2024-01-06T01:33:00;5.30;;;2.57;;
12433;SDS011;6281;49.038;8.372;2024-01-06T01:35:27;7.10;;;3.17;;
12433;SDS011;6281;49.038;8.372;2024-01-06T01:37:54;7.67;;;3.03;;
12433;SDS011;6281;49.038;8.372;2024-01-06T01:40:21;7.80;;;3.40;;
12433;SDS011;6281;49.038;8.372;2024-01-06T01:42:49;4.63;;;2.90;;
12433;SDS011;6281;49.038;8.372;2024-01-06T01:45:15;4.93;;;3.10;;
12433;SDS011;6281;49.038;8.372;2024-01-06T01:47:42;4.83;;;3.07;;
12433;SDS011;6281;49.038;8.372;2024-01-06T01:50:10;6.87;;;3.50;;
12433;SDS011;6281;49.038;8.372;2024-01-06T01:52:39;6.37;;;3.10;;
12433;SDS011;6281;49.038;8.372;2024-01-06T01:55:07;8.00;;;2.97;;
12433;SDS011;6281;49.038;8.372;2024-01-06T01:57:34;5.83;;;3.07;;
12433;SDS011;6281;49.038;8.372;2024-01-06T02:00:02;6.80;;;2.87;;
12433;SDS011;6281;49.038;8.372;2024-01-06T02:02:30;7.77;;;3.40;;
12433;SDS011;6281;49.038;8.372;2024-01-06T02:04:57;5.43;;;2.63;;
12433;SDS011;6281;49.038;8.372;2024-01-06T02:07:24;5.93;;;2.80;;
12433;SDS011;6281;49.038;8.372;2024-01-06T02:09:51;7.27;;;2.67;;
12433;SDS011;6281;49.038;8.372;2024-01-06T02:12:18;7.57;;;2.70;;
12433;SDS011;6281;49.038;8.372;2024-01-06T02:14:45;6.93;;;2.90;;
12433;SDS011;6281;49.038;8.372;2024-01-06T02:17:13;9.60;;;2.70;;
12433;SDS011;6281;49.038;8.372;2024-01-06T02:19:40;8.60;;;2.53;;
12433;SDS011;6281;49.038;8.372;2024-01-06T02:22:08;7.13;;;3.10;;
12433;SDS011;6281;49.038;8.372;2024-01-06T02:24:34;8.03;;;2.33;;
12433;SDS011;6281;49.038;8.372;2024-01-06T02:27:01;4.43;;;2.87;;
12433;SDS011;6281;49.038;8.372;2024-01-06T02:29:28;5.00;;;2.57;;
12433;SDS011;6281;49.038;8.372;2024-01-06T02:31:55;5.23;;;2.93;;
12433;SDS011;6281;49.038;8.372;2024-01-06T02:34:23;5.90;;;2.70;;
12433;SDS011;6281;49.038;8.372;2024-01-06T02:36:49;7.20;;;2.40;;
12433;SDS011;6281;49.038;8.372;2024-01-06T02:39:17;10.00;;;2.73;;
12433;SDS011;6281;49.038;8.372;2024-01-06T02:41:44;5.93;;;3.00;;
12433;SDS011;6281;49.038;8.372;2024-01-06T02:44:11;6.10;;;2.60;;
12433;SDS011;6281;49.038;8.372;2024-01-06T02:46:39;8.40;;;2.83;;
12433;SDS011;6281;49.038;8.372;2024-01-06T02:49:06;4.90;;;3.00;;
12433;SDS011;6281;49.038;8.372;2024-01-06T02:51:33;5.33;;;2.70;;
12433;SDS011;6281;49.038;8.372;2024-01-06T02:54:00;7.43;;;2.40;;
12433;SDS011;6281;49.038;8.372;2024-01-06T02:56:28;4.87;;;2.60;;
12433;SDS011;6281;49.038;8.372;2024-01-06T02:58:55;5.77;;;2.73;;
12433;SDS011;6281;49.038;8.372;2024-01-06T03:01:22;6.77;;;2.90;;
12433;SDS011;6281;49.038;8.372;2024-01-06T03:03:48;4.40;;;2.60;;
12433;SDS011;6281;49.038;8.372;2024-01-06T03:06:15;7.67;;;3.03;;
12433;SDS011;6281;49.038;8.372;2024-01-06T03:08:42;7.40;;;2.43;;
12433;SDS011;6281;49.038;8.372;2024-01-06T03:11:10;7.00;;;2.83;;
12433;SDS011;6281;49.038;8.372;2024-01-06T03:13:38;5.57;;;2.50;;
12433;SDS011;6281;49.038;8.372;2024-01-06T03:16:05;4.10;;;2.47;;
12433;SDS011;6281;49.038;8.372;2024-01-06T03:18:31;7.33;;;2.37;;
12433;SDS011;6281;49.038;8.372;2024-01-06T03:20:58;4.40;;;2.53;;
12433;SDS011;6281;49.038;8.372;2024-01-06T03:23:25;4.67;;;2.50;;
12433;SDS011;6281;49.038;8.372;2024-01-06T03:25:52;8.30;;;2.50;;
12433;SDS011;6281;49.038;8.372;2024-01-06T03:28:19;6.70;;;2.33;;
12433;SDS011;6281;49.038;8.372;2024-01-06T03:30:47;5.50;;;2.27;;
12433;SDS011;6281;49.038;8.372;2024-01-06T03:33:14;4.40;;;2.50;;
12433;SDS011;6281;49.038;8.372;2024-01-06T03:35:41;5.23;;;2.17;;
12433;SDS011;6281;49.038;8.372;2024-01-06T03:38:08;11.43;;;3.27;;
12433;SDS011;6281;49.038;8.372;2024-01-06T03:40:35;9.23;;;3.67;;
12433;SDS011;6281;49.038;8.372;2024-01-06T03:43:02;8.43;;;3.33;;
12433;SDS011;6281;49.038;8.372;2024-01-06T03:45:29;6.67;;;3.13;;
12433;SDS011;6281;49.038;8.372;2024-01-06T03:47:57;9.90;;;3.50;;
12433;SDS011;6281;49.038;8.372;2024-01-06T03:50:24;9.27;;;3.70;;
12433;SDS011;6281;49.038;8.372;2024-01-06T03:52:51;5.30;;;2.43;;
12433;SDS011;6281;49.038;8.372;2024-01-06T03:55:18;3.80;;;1.87;;
12433;SDS011;6281;49.038;8.372;2024-01-06T03:57:45;4.97;;;2.47;;
12433;SDS011;6281;49.038;8.372;2024-01-06T04:00:12;3.83;;;2.37;;
12433;SDS011;6281;49.038;8.372;2024-01-06T04:02:42;5.00;;;2.40;;
12433;SDS011;6281;49.038;8.372;2024-01-06T04:05:33;4.67;;;2.07;;
12433;SDS011;6281;49.038;8.372;2024-01-06T04:08:46;8.07;;;2.40;;
12433;SDS011;6281;49.038;8.372;2024-01-06T04:11:13;3.03;;;2.20;;
12433;SDS011;6281;49.038;8.372;2024-01-06T04:13:40;3.60;;;2.37;;
12433;SDS011;6281;49.038;8.372;2024-01-06T04:16:07;4.70;;;2.07;;
12433;SDS011;6281;49.038;8.372;2024-01-06T04:18:33;7.27;;;2.90;;
12433;SDS011;6281;49.038;8.372;2024-01-06T04:21:02;6.70;;;2.57;;
12433;SDS011;6281;49.038;8.372;2024-01-06T04:23:30;4.77;;;2.40;;
12433;SDS011;6281;49.038;8.372;2024-01-06T04:25:56;9.10;;;2.50;;
12433;SDS011;6281;49.038;8.372;2024-01-06T04:28:23;4.37;;;2.30;;
12433;SDS011;6281;49.038;8.372;2024-01-06T04:30:51;7.60;;;2.53;;
12433;SDS011;6281;49.038;8.372;2024-01-06T04:33:18;9.37;;;2.80;;
12433;SDS011;6281;49.038;8.372;2024-01-06T04:35:45;5.73;;;2.37;;
12433;SDS011;6281;49.038;8.372;2024-01-06T04:38:13;5.93;;;2.40;;
12433;SDS011;6281;49.038;8.372;2024-01-06T04:40:40;7.70;;;2.20;;
12433;SDS011;6281;49.038;8.372;2024-01-06T04:43:08;3.60;;;2.13;;
12433;SDS011;6281;49.038;8.372;2024-01-06T04:45:35;5.87;;;2.43;;
12433;SDS011;6281;49.038;8.372;2024-01-06T04:48:03;6.73;;;2.03;;
12433;SDS011;6281;49.038;8.372;2024-01-06T04:50:30;5.43;;;2.13;;
12433;SDS011;6281;49.038;8.372;2024-01-06T04:52:57;7.33;;;3.00;;
12433;SDS011;6281;49.038;8.372;2024-01-06T04:55:25;3.73;;;2.37;;
12433;SDS011;6281;49.038;8.372;2024-01-06T04:57:52;5.83;;;2.60;;
12433;SDS011;6281;49.038;8.372;2024-01-06T05:00:19;4.50;;;2.50;;
12433;SDS011;6281;49.038;8.372;2024-01-06T05:02:46;5.70;;;2.50;;
12433;SDS011;6281;49.038;8.372;2024-01-06T05:05:13;5.40;;;2.13;;
12433;SDS011;6281;49.038;8.372;2024-01-06T05:07:40;6.27;;;2.50;;
12433;SDS011;6281;49.038;8.372;2024-01-06T05:10:07;7.07;;;2.30;;
12433;SDS011;6281;49.038;8.372;2024-01-06T05:12:36;10.13;;;2.77;;
12433;SDS011;6281;49.038;8.372;2024-01-06T05:15:03;9.53;;;2.83;;
12433;SDS011;6281;49.038;8.372;2024-01-06T05:17:30;5.73;;;2.60;;
12433;SDS011;6281;49.038;8.372;2024-01-06T05:19:57;6.13;;;2.17;;
12433;SDS011;6281;49.038;8.372;2024-01-06T05:22:25;10.50;;;3.00;;
12433;SDS011;6281;49.038;8.372;2024-01-06T05:24:52;5.07;;;2.67;;
12433;SDS011;6281;49.038;8.372;2024-01-06T05:27:19;4.67;;;1.97;;
12433;SDS011;6281;49.038;8.372;2024-01-06T05:29:47;4.37;;;2.00;;
12433;SDS011;6281;49.038;8.372;2024-01-06T05:32:16;5.83;;;2.23;;
12433;SDS011;6281;49.038;8.372;2024-01-06T05:34:43;4.50;;;2.20;;
12433;SDS011;6281;49.038;8.372;2024-01-06T05:37:10;5.93;;;2.30;;
12433;SDS011;6281;49.038;8.372;2024-01-06T05:39:37;6.60;;;2.00;;
12433;SDS011;6281;49.038;8.372;2024-01-06T05:42:04;5.23;;;2.50;;
12433;SDS011;6281;49.038;8.372;2024-01-06T05:44:34;2.93;;;2.10;;
12433;SDS011;6281;49.038;8.372;2024-01-06T05:47:03;5.50;;;2.60;;
12433;SDS011;6281;49.038;8.372;2024-01-06T05:49:30;6.53;;;2.27;;
12433;SDS011;6281;49.038;8.372;2024-01-06T05:51:57;5.83;;;2.40;;
12433;SDS011;6281;49.038;8.372;2024-01-06T05:54:24;6.23;;;2.57;;
12433;SDS011;6281;49.038;8.372;2024-01-06T05:56:51;7.43;;;2.97;;
12433;SDS011;6281;49.038;8.372;2024-01-06T05:59:18;5.90;;;2.50;;
12433;SDS011;6281;49.038;8.372;2024-01-06T06:01:45;8.53;;;2.60;;
12433;SDS011;6281;49.038;8.372;2024-01-06T06:04:13;5.80;;;2.60;;
12433;SDS011;6281;49.038;8.372;2024-01-06T06:06:40;5.47;;;2.40;;
12433;SDS011;6281;49.038;8.372;2024-01-06T06:09:07;11.87;;;3.27;;
12433;SDS011;6281;49.038;8.372;2024-01-06T06:11:35;3.40;;;2.37;;
12433;SDS011;6281;49.038;8.372;2024-01-06T06:14:02;7.27;;;2.33;;
12433;SDS011;6281;49.038;8.372;2024-01-06T06:16:29;6.40;;;2.60;;
12433;SDS011;6281;49.038;8.372;2024-01-06T06:18:56;4.87;;;2.60;;
12433;SDS011;6281;49.038;8.372;2024-01-06T06:21:25;5.27;;;2.70;;
12433;SDS011;6281;49.038;8.372;2024-01-06T06:23:51;6.97;;;2.47;;
12433;SDS011;6281;49.038;8.372;2024-01-06T06:26:18;4.33;;;2.43;;
12433;SDS011;6281;49.038;8.372;2024-01-06T06:28:45;5.70;;;2.50;;
12433;SDS011;6281;49.038;8.372;2024-01-06T06:31:12;6.60;;;2.30;;
12433;SDS011;6281;49.038;8.372;2024-01-06T06:33:39;7.20;;;2.87;;
12433;SDS011;6281;49.038;8.372;2024-01-06T06:36:07;8.60;;;2.60;;
12433;SDS011;6281;49.038;8.372;2024-01-06T06:38:35;5.77;;;2.70;;
12433;SDS011;6281;49.038;8.372;2024-01-06T06:41:02;6.60;;;2.77;;
12433;SDS011;6281;49.038;8.372;2024-01-06T06:43:30;4.27;;;2.40;;
12433;SDS011;6281;49.038;8.372;2024-01-06T06:45:57;5.70;;;2.30;;
12433;SDS011;6281;49.038;8.372;2024-01-06T06:48:23;7.20;;;2.70;;
12433;SDS011;6281;49.038;8.372;2024-01-06T06:50:50;7.23;;;2.70;;
12433;SDS011;6281;49.038;8.372;2024-01-06T06:53:17;6.20;;;3.30;;
12433;SDS011;6281;49.038;8.372;2024-01-06T06:55:45;5.60;;;3.00;;
12433;SDS011;6281;49.038;8.372;2024-01-06T06:58:12;4.60;;;2.90;;
12433;SDS011;6281;49.038;8.372;2024-01-06T07:00:39;6.10;;;3.20;;
12433;SDS011;6281;49.038;8.372;2024-01-06T07:03:07;5.43;;;2.83;;
12433;SDS011;6281;49.038;8.372;2024-01-06T07:05:34;4.13;;;2.80;;
12433;SDS011;6281;49.038;8.372;2024-01-06T07:08:00;5.80;;;3.00;;
12433;SDS011;6281;49.038;8.372;2024-01-06T07:10:27;6.47;;;2.80;;
12433;SDS011;6281;49.038;8.372;2024-01-06T07:12:56;4.97;;;3.07;;
12433;SDS011;6281;49.038;8.372;2024-01-06T07:15:23;5.70;;;2.97;;
12433;SDS011;6281;49.038;8.372;2024-01-06T07:17:49;7.70;;;2.67;;
12433;SDS011;6281;49.038;8.372;2024-01-06T07:20:16;6.17;;;2.77;;
12433;SDS011;6281;49.038;8.372;2024-01-06T07:22:43;4.77;;;3.07;;
12433;SDS011;6281;49.038;8.372;2024-01-06T07:25:10;6.03;;;3.27;;
12433;SDS011;6281;49.038;8.372;2024-01-06T07:27:37;9.30;;;3.40;;
12433;SDS011;6281;49.038;8.372;2024-01-06T07:30:06;5.50;;;2.93;;
12433;SDS011;6281;49.038;8.372;2024-01-06T07:32:34;6.90;;;2.87;;
12433;SDS011;6281;49.038;8.372;2024-01-06T07:35:01;5.47;;;3.17;;
12433;SDS011;6281;49.038;8.372;2024-01-06T07:37:28;4.97;;;3.27;;
12433;SDS011;6281;49.038;8.372;2024-01-06T07:39:55;6.20;;;3.43;;
12433;SDS011;6281;49.038;8.372;2024-01-06T07:42:22;7.43;;;3.33;;
12433;SDS011;6281;49.038;8.372;2024-01-06T07:44:49;5.53;;;3.23;;
12433;SDS011;6281;49.038;8.372;2024-01-06T07:47:17;4.17;;;2.87;;
12433;SDS011;6281;49.038;8.372;2024-01-06T07:49:44;6.40;;;3.10;;
12433;SDS011;6281;49.038;8.372;2024-01-06T07:52:11;7.63;;;3.37;;
12433;SDS011;6281;49.038;8.372;2024-01-06T07:54:38;5.87;;;3.90;;
12433;SDS011;6281;49.038;8.372;2024-01-06T07:57:05;7.20;;;3.30;;
12433;SDS011;6281;49.038;8.372;2024-01-06T07:59:32;5.30;;;3.37;;
12433;SDS011;6281;49.038;8.372;2024-01-06T08:01:59;4.43;;;3.33;;
12433;SDS011;6281;49.038;8.372;2024-01-06T08:04:27;4.63;;;2.43;;
12433;SDS011;6281;49.038;8.372;2024-01-06T08:06:54;6.97;;;3.03;;
12433;SDS011;6281;49.038;8.372;2024-01-06T08:09:21;6.47;;;3.80;;
12433;SDS011;6281;49.038;8.372;2024-01-06T08:11:48;6.33;;;3.53;;
12433;SDS011;6281;49.038;8.372;2024-01-06T08:14:15;6.07;;;3.73;;
12433;SDS011;6281;49.038;8.372;2024-01-06T08:16:42;4.70;;;3.30;;
12433;SDS011;6281;49.038;8.372;2024-01-06T08:19:09;6.43;;;3.30;;
12433;SDS011;6281;49.038;8.372;2024-01-06T08:21:37;7.93;;;3.13;;
12433;SDS011;6281;49.038;8.372;2024-01-06T08:24:04;6.97;;;3.33;;
12433;SDS011;6281;49.038;8.372;2024-01-06T08:26:31;5.10;;;3.30;;
12433;SDS011;6281;49.038;8.372;2024-01-06T08:28:58;8.33;;;3.90;;
12433;SDS011;6281;49.038;8.372;2024-01-06T08:31:25;5.57;;;3.83;;
12433;SDS011;6281;49.038;8.372;2024-01-06T08:33:52;7.43;;;4.37;;
12433;SDS011;6281;49.038;8.372;2024-01-06T08:36:18;5.73;;;3.47;;
12433;SDS011;6281;49.038;8.372;2024-01-06T08:38:47;7.90;;;3.57;;
12433;SDS011;6281;49.038;8.372;2024-01-06T08:41:13;9.57;;;3.97;;
12433;SDS011;6281;49.038;8.372;2024-01-06T08:43:40;6.93;;;4.00;;
12433;SDS011;6281;49.038;8.372;2024-01-06T08:46:07;11.23;;;4.33;;
12433;SDS011;6281;49.038;8.372;2024-01-06T08:48:34;6.47;;;3.87;;
12433;SDS011;6281;49.038;8.372;2024-01-06T08:51:00;9.87;;;4.07;;
12433;SDS011;6281;49.038;8.372;2024-01-06T08:53:27;8.10;;;4.53;;
12433;SDS011;6281;49.038;8.372;2024-01-06T08:55:55;8.37;;;4.10;;
12433;SDS011;6281;49.038;8.372;2024-01-06T08:58:22;6.17;;;3.77;;
12433;SDS011;6281;49.038;8.372;2024-01-06T09:00:49;7.67;;;4.90;;
12433;SDS011;6281;49.038;8.372;2024-01-06T09:03:16;8.90;;;4.70;;
12433;SDS011;6281;49.038;8.372;2024-01-06T09:05:43;7.97;;;4.73;;
12433;SDS011;6281;49.038;8.372;2024-01-06T09:08:09;9.27;;;4.27;;
12433;SDS011;6281;49.038;8.372;2024-01-06T09:10:36;7.80;;;4.97;;
12433;SDS011;6281;49.038;8.372;2024-01-06T09:13:04;11.47;;;5.00;;
12433;SDS011;6281;49.038;8.372;2024-01-06T09:15:31;8.80;;;5.00;;
12433;SDS011;6281;49.038;8.372;2024-01-06T09:17:58;7.47;;;4.53;;
12433;SDS011;6281;49.038;8.372;2024-01-06T09:20:25;8.47;;;4.83;;
12433;SDS011;6281;49.038;8.372;2024-01-06T09:22:52;7.17;;;4.77;;
12433;SDS011;6281;49.038;8.372;2024-01-06T09:25:19;6.93;;;4.67;;
12433;SDS011;6281;49.038;8.372;2024-01-06T09:27:48;9.03;;;5.00;;
12433;SDS011;6281;49.038;8.372;2024-01-06T09:30:17;7.67;;;4.97;;
12433;SDS011;6281;49.038;8.372;2024-01-06T09:32:44;8.40;;;5.17;;
12433;SDS011;6281;49.038;8.372;2024-01-06T09:35:11;9.70;;;5.20;;
12433;SDS011;6281;49.038;8.372;2024-01-06T09:37:37;10.07;;;5.10;;
12433;SDS011;6281;49.038;8.372;2024-01-06T09:40:06;10.97;;;5.57;;
12433;SDS011;6281;49.038;8.372;2024-01-06T09:42:37;7.23;;;4.87;;
12433;SDS011;6281;49.038;8.372;2024-01-06T09:45:04;9.30;;;5.33;;
12433;SDS011;6281;49.038;8.372;2024-01-06T09:47:33;11.50;;;5.60;;
12433;SDS011;6281;49.038;8.372;2024-01-06T09:50:01;7.00;;;5.10;;
12433;SDS011;6281;49.038;8.372;2024-01-06T09:52:31;7.90;;;5.03;;
12433;SDS011;6281;49.038;8.372;2024-01-06T09:54:59;6.93;;;5.10;;
12433;SDS011;6281;49.038;8.372;2024-01-06T09:57:28;9.10;;;5.10;;
12433;SDS011;6281;49.038;8.372;2024-01-06T09:59:55;10.27;;;5.23;;
12433;SDS011;6281;49.038;8.372;2024-01-06T10:02:23;8.90;;;5.30;;
12433;SDS011;6281;49.038;8.372;2024-01-06T10:07:20;9.67;;;5.27;;
12433;SDS011;6281;49.038;8.372;2024-01-06T10:09:46;8.43;;;5.33;;
12433;SDS011;6281;49.038;8.372;2024-01-06T10:12:13;8.77;;;5.50;;
12433;SDS011;6281;49.038;8.372;2024-01-06T10:14:40;8.77;;;5.80;;
12433;SDS011;6281;49.038;8.372;2024-01-06T10:17:07;9.27;;;5.63;;
12433;SDS011;6281;49.038;8.372;2024-01-06T10:19:34;7.23;;;5.37;;
12433;SDS011;6281;49.038;8.372;2024-01-06T10:22:01;8.07;;;5.17;;
12433;SDS011;6281;49.038;8.372;2024-01-06T10:24:30;10.80;;;5.57;;
12433;SDS011;6281;49.038;8.372;2024-01-06T10:26:57;10.70;;;5.63;;
12433;SDS011;6281;49.038;8.372;2024-01-06T10:29:24;8.10;;;4.97;;
12433;SDS011;6281;49.038;8.372;2024-01-06T10:31:52;8.97;;;5.97;;
12433;SDS011;6281;49.038;8.372;2024-01-06T10:34:19;9.03;;;5.57;;
12433;SDS011;6281;49.038;8.372;2024-01-06T10:36:46;7.63;;;5.53;;
12433;SDS011;6281;49.038;8.372;2024-01-06T10:39:13;8.77;;;5.77;;
12433;SDS011;6281;49.038;8.372;2024-01-06T10:41:42;8.47;;;5.20;;
12433;SDS011;6281;49.038;8.372;2024-01-06T10:44:10;9.80;;;5.60;;
12433;SDS011;6281;49.038;8.372;2024-01-06T10:46:37;7.73;;;4.67;;
12433;SDS011;6281;49.038;8.372;2024-01-06T10:49:05;7.17;;;5.40;;
12433;SDS011;6281;49.038;8.372;2024-01-06T10:51:33;7.03;;;4.57;;
12433;SDS011;6281;49.038;8.372;2024-01-06T10:54:00;7.53;;;5.30;;
12433;SDS011;6281;49.038;8.372;2024-01-06T10:56:28;13.00;;;6.13;;
12433;SDS011;6281;49.038;8.372;2024-01-06T10:58:57;9.40;;;5.70;;
12433;SDS011;6281;49.038;8.372;2024-01-06T11:01:24;10.10;;;6.27;;
12433;SDS011;6281;49.038;8.372;2024-01-06T11:03:51;9.70;;;5.37;;
12433;SDS011;6281;49.038;8.372;2024-01-06T11:06:19;8.20;;;5.37;;
12433;SDS011;6281;49.038;8.372;2024-01-06T11:08:48;7.90;;;5.80;;
12433;SDS011;6281;49.038;8.372;2024-01-06T11:11:19;8.33;;;5.83;;
12433;SDS011;6281;49.038;8.372;2024-01-06T11:13:46;7.60;;;5.70;;
12433;SDS011;6281;49.038;8.372;2024-01-06T11:19:03;8.43;;;6.03;;
12433;SDS011;6281;49.038;8.372;2024-01-06T11:22:18;7.80;;;5.57;;
12433;SDS011;6281;49.038;8.372;2024-01-06T11:24:46;11.27;;;6.63;;
12433;SDS011;6281;49.038;8.372;2024-01-06T11:27:17;10.53;;;5.73;;
12433;SDS011;6281;49.038;8.372;2024-01-06T11:29:44;9.77;;;6.30;;
12433;SDS011;6281;49.038;8.372;2024-01-06T11:32:19;9.43;;;6.63;;
12433;SDS011;6281;49.038;8.372;2024-01-06T11:34:47;12.17;;;6.40;;
12433;SDS011;6281;49.038;8.372;2024-01-06T11:37:16;9.07;;;5.93;;
12433;SDS011;6281;49.038;8.372;2024-01-06T11:39:44;10.80;;;7.10;;
12433;SDS011;6281;49.038;8.372;2024-01-06T11:42:11;8.63;;;6.50;;
12433;SDS011;6281;49.038;8.372;2024-01-06T11:44:38;8.27;;;6.07;;
12433;SDS011;6281;49.038;8.372;2024-01-06T11:47:05;8.90;;;5.53;;
12433;SDS011;6281;49.038;8.372;2024-01-06T11:49:35;9.30;;;6.80;;
12433;SDS011;6281;49.038;8.372;2024-01-06T11:52:02;8.47;;;5.97;;
12433;SDS011;6281;49.038;8.372;2024-01-06T11:54:29;7.63;;;5.70;;
12433;SDS011;6281;49.038;8.372;2024-01-06T11:56:57;8.73;;;5.80;;
12433;SDS011;6281;49.038;8.372;2024-01-06T11:59:24;8.40;;;6.10;;
12433;SDS011;6281;49.038;8.372;2024-01-06T12:01:51;7.50;;;5.57;;
12433;SDS011;6281;49.038;8.372;2024-01-06T12:04:17;11.50;;;6.07;;
12433;SDS011;6281;49.038;8.372;2024-01-06T12:06:48;9.53;;;5.13;;
12433;SDS011;6281;49.038;8.372;2024-01-06T12:09:16;8.87;;;5.10;;
12433;SDS011;6281;49.038;8.372;2024-01-06T12:11:44;7.80;;;5.03;;
12433;SDS011;6281;49.038;8.372;2024-01-06T12:14:12;6.90;;;4.87;;
12433;SDS011;6281;49.038;8.372;2024-01-06T12:16:38;8.40;;;5.13;;
12433;SDS011;6281;49.038;8.372;2024-01-06T12:19:05;8.10;;;4.87;;
12433;SDS011;6281;49.038;8.372;2024-01-06T12:21:32;7.13;;;5.37;;
12433;SDS011;6281;49.038;8.372;2024-01-06T12:26:55;7.37;;;5.17;;
12433;SDS011;6281;49.038;8.372;2024-01-06T12:29:22;6.80;;;5.20;;
12433;SDS011;6281;49.038;8.372;2024-01-06T12:31:53;7.07;;;5.17;;
12433;SDS011;6281;49.038;8.372;2024-01-06T12:34:20;6.23;;;4.67;;
12433;SDS011;6281;49.038;8.372;2024-01-06T12:36:46;8.20;;;6.17;;
12433;SDS011;6281;49.038;8.372;2024-01-06T12:39:14;6.43;;;5.00;;
12433;SDS011;6281;49.038;8.372;2024-01-06T12:41:42;8.43;;;5.90;;
12433;SDS011;6281;49.038;8.372;2024-01-06T12:44:10;7.53;;;5.80;;
12433;SDS011;6281;49.038;8.372;2024-01-06T12:46:37;8.00;;;5.43;;
12433;SDS011;6281;49.038;8.372;2024-01-06T12:49:04;7.87;;;5.60;;
12433;SDS011;6281;49.038;8.372;2024-01-06T12:51:31;8.70;;;5.53;;
12433;SDS011;6281;49.038;8.372;2024-01-06T12:53:58;6.97;;;5.13;;
12433;SDS011;6281;49.038;8.372;2024-01-06T12:56:24;7.00;;;5.57;;
12433;SDS011;6281;49.038;8.372;2024-01-06T12:58:52;7.33;;;5.83;;
12433;SDS011;6281;49.038;8.372;2024-01-06T13:01:19;7.57;;;5.90;;
12433;SDS011;6281;49.038;8.372;2024-01-06T13:03:46;7.73;;;5.70;;
12433;SDS011;6281;49.038;8.372;2024-01-06T13:06:13;8.30;;;5.57;;
12433;SDS011;6281;49.038;8.372;2024-01-06T13:08:41;7.27;;;5.77;;
12433;SDS011;6281;49.038;8.372;2024-01-06T13:11:08;8.50;;;5.30;;
12433;SDS011;6281;49.038;8.372;2024-01-06T13:13:35;6.47;;;5.53;;
12433;SDS011;6281;49.038;8.372;2024-01-06T13:16:03;7.17;;;4.43;;
12433;SDS011;6281;49.038;8.372;2024-01-06T13:18:31;7.93;;;5.43;;
12433;SDS011;6281;49.038;8.372;2024-01-06T13:20:57;8.43;;;5.83;;
12433;SDS011;6281;49.038;8.372;2024-01-06T13:23:24;8.43;;;5.87;;
12433;SDS011;6281;49.038;8.372;2024-01-06T13:25:51;10.50;;;5.87;;
12433;SDS011;6281;49.038;8.372;2024-01-06T13:28:19;8.27;;;6.00;;
12433;SDS011;6281;49.038;8.372;2024-01-06T13:30:45;7.13;;;5.67;;
12433;SDS011;6281;49.038;8.372;2024-01-06T13:33:13;9.03;;;6.37;;
12433;SDS011;6281;49.038;8.372;2024-01-06T13:35:40;8.17;;;6.20;;
12433;SDS011;6281;49.038;8.372;2024-01-06T13:38:07;20.30;;;10.47;;
12433;SDS011;6281;49.038;8.372;2024-01-06T13:40:34;10.47;;;7.13;;
12433;SDS011;6281;49.038;8.372;2024-01-06T13:43:01;12.87;;;7.83;;
12433;SDS011;6281;49.038;8.372;2024-01-06T13:45:29;9.70;;;6.23;;
12433;SDS011;6281;49.038;8.372;2024-01-06T13:47:56;10.13;;;6.77;;
12433;SDS011;6281;49.038;8.372;2024-01-06T13:50:24;9.27;;;6.73;;
12433;SDS011;6281;49.038;8.372;2024-01-06T13:52:51;9.63;;;5.87;;
12433;SDS011;6281;49.038;8.372;2024-01-06T13:55:19;7.53;;;5.20;;
12433;SDS011;6281;49.038;8.372;2024-01-06T13:57:46;10.53;;;5.50;;
12433;SDS011;6281;49.038;8.372;2024-01-06T14:00:13;7.30;;;5.00;;
12433;SDS011;6281;49.038;8.372;2024-01-06T14:02:43;11.33;;;7.13;;
12433;SDS011;6281;49.038;8.372;2024-01-06T14:05:11;9.40;;;6.20;;
12433;SDS011;6281;49.038;8.372;2024-01-06T14:07:40;8.97;;;5.30;;
12433;SDS011;6281;49.038;8.372;2024-01-06T14:10:10;7.03;;;5.63;;
12433;SDS011;6281;49.038;8.372;2024-01-06T14:12:37;7.67;;;5.83;;
12433;SDS011;6281;49.038;8.372;2024-01-06T14:15:05;8.20;;;5.87;;
12433;SDS011;6281;49.038;8.372;2024-01-06T14:17:33;7.53;;;5.70;;
12433;SDS011;6281;49.038;8.372;2024-01-06T14:20:00;14.40;;;8.93;;
12433;SDS011;6281;49.038;8.372;2024-01-06T14:22:27;11.23;;;7.53;;
12433;SDS011;6281;49.038;8.372;2024-01-06T14:24:56;11.00;;;6.80;;
12433;SDS011;6281;49.038;8.372;2024-01-06T14:27:22;8.83;;;6.57;;
12433;SDS011;6281;49.038;8.372;2024-01-06T14:29:51;13.77;;;7.43;;
12433;SDS011;6281;49.038;8.372;2024-01-06T14:32:20;10.17;;;6.87;;
12433;SDS011;6281;49.038;8.372;2024-01-06T14:34:48;10.77;;;6.83;;
12433;SDS011;6281;49.038;8.372;2024-01-06T14:37:15;9.97;;;7.20;;
12433;SDS011;6281;49.038;8.372;2024-01-06T14:39:42;9.33;;;6.90;;
12433;SDS011;6281;49.038;8.372;2024-01-06T14:42:10;9.90;;;6.63;;
12433;SDS011;6281;49.038;8.372;2024-01-06T14:44:37;9.63;;;7.63;;
12433;SDS011;6281;49.038;8.372;2024-01-06T14:47:04;12.80;;;7.63;;
12433;SDS011;6281;49.038;8.372;2024-01-06T14:49:31;12.77;;;7.33;;
12433;SDS011;6281;49.038;8.372;2024-01-06T14:51:58;10.60;;;7.00;;
12433;SDS011;6281;49.038;8.372;2024-01-06T14:54:27;11.33;;;7.10;;
12433;SDS011;6281;49.038;8.372;2024-01-06T14:56:56;9.57;;;6.73;;
12433;SDS011;6281;49.038;8.372;2024-01-06T14:59:24;10.70;;;7.00;;
12433;SDS011;6281;49.038;8.372;2024-01-06T15:01:51;11.13;;;7.23;;
12433;SDS011;6281;49.038;8.372;2024-01-06T15:04:18;10.13;;;7.07;;
12433;SDS011;6281;49.038;8.372;2024-01-06T15:06:45;10.07;;;7.17;;
12433;SDS011;6281;49.038;8.372;2024-01-06T15:09:12;9.00;;;6.80;;
12433;SDS011;6281;49.038;8.372;2024-01-06T15:11:39;11.07;;;7.47;;